createdAt,value
2023-04-06T00:02:08.904Z,65.55
2023-04-06T00:04:35.441Z,65.17
2023-04-06T00:07:01.951Z,65.66
2023-04-06T00:09:28.409Z,65.00
2023-04-06T00:11:54.852Z,65.21
2023-04-06T00:14:21.935Z,65.29
2023-04-06T00:16:48.473Z,64.95
2023-04-06T00:19:16.736Z,64.98
2023-04-06T00:21:43.682Z,65.12
2023-04-06T00:24:10.368Z,66.19
2023-04-06T00:26:36.832Z,65.99
2023-04-06T00:29:03.610Z,66.09
2023-04-06T00:31:30.121Z,66.33
2023-04-06T00:33:56.662Z,66.50
2023-04-06T00:36:23.178Z,66.29
2023-04-06T00:38:49.718Z,66.52
2023-04-06T00:41:16.206Z,66.14
2023-04-06T00:43:42.650Z,67.10
2023-04-06T00:46:09.166Z,65.65
2023-04-06T00:48:35.754Z,66.07
2023-04-06T00:51:02.697Z,66.41
2023-04-06T00:53:29.141Z,65.75
2023-04-06T00:55:55.584Z,66.41
2023-04-06T00:58:22.101Z,67.14
2023-04-06T01:00:48.580Z,67.29
2023-04-06T01:03:15.116Z,67.09
2023-04-06T01:05:41.802Z,67.07
2023-04-06T01:08:08.722Z,67.22
2023-04-06T01:10:35.369Z,66.36
2023-04-06T01:13:01.846Z,66.79
2023-04-06T01:15:29.673Z,67.53
2023-04-06T01:17:56.108Z,68.23
2023-04-06T01:20:22.654Z,68.27
2023-04-06T01:22:49.121Z,69.66
2023-04-06T01:25:15.598Z,69.09
2023-04-06T01:27:42.235Z,68.82
2023-04-06T01:30:08.933Z,69.50
2023-04-06T01:32:35.402Z,69.97
2023-04-06T01:35:02.033Z,69.55
2023-04-06T01:37:30.450Z,70.11
2023-04-06T01:39:56.914Z,70.05
2023-04-06T01:42:23.382Z,68.95
2023-04-06T01:44:49.844Z,69.59
2023-04-06T01:47:16.282Z,69.67
2023-04-06T01:49:42.711Z,69.39
2023-04-06T01:52:09.244Z,70.10
2023-04-06T01:54:35.725Z,71.31
2023-04-06T01:57:02.190Z,71.29
2023-04-06T01:59:28.646Z,71.50
2023-04-06T02:01:55.137Z,70.59
2023-04-06T02:04:22.364Z,72.15
2023-04-06T02:06:48.898Z,71.97
2023-04-06T02:09:15.632Z,72.49
2023-04-06T02:11:42.113Z,70.95
2023-04-06T02:14:08.621Z,71.47
2023-04-06T02:16:35.120Z,71.63
2023-04-06T02:19:01.866Z,71.24
2023-04-06T02:21:28.313Z,72.00
2023-04-06T02:23:54.947Z,71.91
2023-04-06T02:26:21.763Z,72.52
2023-04-06T02:28:48.270Z,73.71
2023-04-06T02:31:16.088Z,73.38
2023-04-06T02:33:42.593Z,72.97
2023-04-06T02:36:09.176Z,73.05
2023-04-06T02:38:35.629Z,72.99
2023-04-06T02:41:02.113Z,73.40
2023-04-06T02:43:28.574Z,72.22
2023-04-06T02:45:55.448Z,71.10
2023-04-06T02:48:21.933Z,71.81
2023-04-06T02:50:48.413Z,71.15
2023-04-06T02:53:14.865Z,70.61
2023-04-06T02:55:41.381Z,71.50
2023-04-06T02:58:07.880Z,71.54
2023-04-06T03:00:34.362Z,70.54
2023-04-06T03:03:00.861Z,70.87
2023-04-06T03:05:27.548Z,71.43
2023-04-06T03:07:53.996Z,71.67
2023-04-06T03:10:20.445Z,70.58
2023-04-06T03:12:46.974Z,70.25
2023-04-06T03:15:13.437Z,70.19
2023-04-06T03:17:40.081Z,71.16
2023-04-06T03:20:06.893Z,71.76
2023-04-06T03:22:33.331Z,70.76
2023-04-06T03:25:01.004Z,71.02
2023-04-06T03:27:29.596Z,70.90
2023-04-06T03:29:56.347Z,71.87
2023-04-06T03:32:22.854Z,71.94
2023-04-06T03:34:49.399Z,70.83
2023-04-06T03:37:15.829Z,70.74
2023-04-06T03:39:42.287Z,72.64
2023-04-06T03:42:08.756Z,72.61
2023-04-06T03:44:35.547Z,71.03
2023-04-06T03:47:03.279Z,69.85
2023-04-06T03:49:29.739Z,70.60
2023-04-06T03:51:57.664Z,72.30
2023-04-06T03:54:24.763Z,72.25
2023-04-06T03:56:51.606Z,72.43
2023-04-06T03:59:18.429Z,72.13
2023-04-06T04:01:44.918Z,71.26
2023-04-06T04:04:11.768Z,72.06
2023-04-06T04:06:38.259Z,71.17
2023-04-06T04:09:04.696Z,70.46
2023-04-06T04:11:31.153Z,71.43
2023-04-06T04:13:57.724Z,70.73
2023-04-06T04:16:24.524Z,70.76
2023-04-06T04:18:51.414Z,70.60
2023-04-06T04:21:18.332Z,70.07
2023-04-06T04:23:44.975Z,70.12
2023-04-06T04:26:11.752Z,70.49
2023-04-06T04:28:38.461Z,70.60
2023-04-06T04:31:05.060Z,69.70
2023-04-06T04:33:31.597Z,68.88
2023-04-06T04:35:58.212Z,69.57
2023-04-06T04:38:24.702Z,70.06
2023-04-06T04:40:51.210Z,70.92
2023-04-06T04:43:17.710Z,71.38
2023-04-06T04:45:44.246Z,70.79
2023-04-06T04:48:11.792Z,71.08
2023-04-06T04:50:38.353Z,71.69
2023-04-06T04:53:07.008Z,70.68
2023-04-06T04:55:33.498Z,72.48
2023-04-06T04:57:59.953Z,72.94
2023-04-06T05:00:26.758Z,73.97
2023-04-06T05:02:53.357Z,74.23
2023-04-06T05:05:19.961Z,74.57
2023-04-06T05:07:46.714Z,75.71
2023-04-06T05:10:13.306Z,75.68
2023-04-06T05:12:39.793Z,76.41
2023-04-06T05:15:06.810Z,76.58
2023-04-06T05:17:33.624Z,76.86
2023-04-06T05:20:00.962Z,76.14
2023-04-06T05:22:27.477Z,76.81
2023-04-06T05:24:53.912Z,75.75
2023-04-06T05:27:20.550Z,76.20
2023-04-06T05:29:47.073Z,76.15
2023-04-06T05:32:13.597Z,75.66
2023-04-06T05:34:40.153Z,75.54
2023-04-06T05:37:06.681Z,76.04
2023-04-06T05:39:33.207Z,75.86
2023-04-06T05:41:59.685Z,75.58
2023-04-06T05:44:26.567Z,75.50
2023-04-06T05:46:53.045Z,75.68
2023-04-06T05:49:19.568Z,75.99
2023-04-06T05:51:46.037Z,75.94
2023-04-06T05:54:12.511Z,76.87
2023-04-06T05:56:39.001Z,75.76
2023-04-06T05:59:05.538Z,75.90
2023-04-06T06:01:32.070Z,76.63
2023-04-06T06:03:58.521Z,77.04
2023-04-06T06:09:20.072Z,77.90
2023-04-06T06:14:29.688Z,77.82
2023-04-06T06:16:56.160Z,77.47
2023-04-06T06:19:22.646Z,77.13
2023-04-06T06:21:49.106Z,77.56
2023-04-06T06:24:15.562Z,76.50
2023-04-06T06:26:42.126Z,75.85
2023-04-06T06:29:08.807Z,75.10
2023-04-06T06:31:36.371Z,75.34
2023-04-06T06:34:03.016Z,75.87
2023-04-06T06:36:31.652Z,75.27
2023-04-06T06:38:59.310Z,75.65
2023-04-06T06:41:27.138Z,74.93
2023-04-06T06:43:53.773Z,75.52
2023-04-06T06:46:21.648Z,75.67
2023-04-06T06:48:50.348Z,75.50
2023-04-06T06:51:16.806Z,75.07
2023-04-06T06:53:43.289Z,74.45
2023-04-06T06:56:09.772Z,73.95
2023-04-06T06:58:36.252Z,73.63
2023-04-06T07:01:06.870Z,73.43
2023-04-06T07:03:33.478Z,73.43
2023-04-06T07:06:00.165Z,72.82
2023-04-06T07:08:26.727Z,72.35
2023-04-06T07:10:54.004Z,71.58
2023-04-06T07:13:24.357Z,70.97
2023-04-06T07:15:51.242Z,71.62
2023-04-06T07:18:18.529Z,71.82
2023-04-06T07:20:45.226Z,70.98
2023-04-06T07:23:11.757Z,69.06
2023-04-06T07:25:38.508Z,68.33
2023-04-06T07:28:05.103Z,67.19
2023-04-06T07:30:32.664Z,65.63
2023-04-06T07:33:00.682Z,64.97
2023-04-06T07:35:28.161Z,64.19
2023-04-06T07:38:15.481Z,63.66
2023-04-06T07:40:41.983Z,63.03
2023-04-06T07:43:08.486Z,60.22
2023-04-06T07:45:34.936Z,59.21
2023-04-06T07:48:01.439Z,59.25
2023-04-06T07:50:27.962Z,57.95
2023-04-06T07:52:55.090Z,56.56
2023-04-06T07:55:26.845Z,56.01
2023-04-06T07:57:53.342Z,54.46
2023-04-06T08:00:23.395Z,52.59
2023-04-06T08:02:50.100Z,53.55
2023-04-06T08:05:17.127Z,54.43
2023-04-06T08:07:44.752Z,54.58
2023-04-06T08:10:11.492Z,52.34
2023-04-06T08:12:42.670Z,51.34
2023-04-06T08:15:49.466Z,51.18
2023-04-06T08:18:19.504Z,51.79
2023-04-06T08:20:46.029Z,51.77
2023-04-06T08:23:12.523Z,49.75
2023-04-06T08:25:43.225Z,49.78
2023-04-06T08:28:10.552Z,48.29
2023-04-06T08:30:42.926Z,48.92
2023-04-06T08:33:14.402Z,47.71
2023-04-06T08:35:45.154Z,46.29
2023-04-06T08:38:24.430Z,45.29
2023-04-06T08:41:00.409Z,45.88
2023-04-06T08:43:29.548Z,45.61
2023-04-06T08:46:19.700Z,44.42
2023-04-06T08:48:47.626Z,43.99
2023-04-06T08:51:18.584Z,42.55
2023-04-06T09:00:44.067Z,42.33
2023-04-06T09:03:25.041Z,41.13
2023-04-06T09:12:34.428Z,41.71
2023-04-06T09:18:56.915Z,40.19
2023-04-06T09:21:25.922Z,39.66
2023-04-06T09:24:03.099Z,39.97
2023-04-06T09:26:32.210Z,38.86
2023-04-06T09:32:31.705Z,35.53
2023-04-06T09:35:36.458Z,36.48
2023-04-06T09:38:24.256Z,37.19
2023-04-06T09:41:01.182Z,37.60
2023-04-06T09:43:28.640Z,36.99
2023-04-06T09:45:56.667Z,36.02
2023-04-06T09:48:23.556Z,35.90
2023-04-06T09:50:51.490Z,35.21
2023-04-06T09:53:20.573Z,35.85
2023-04-06T09:55:48.753Z,34.83
2023-04-06T09:58:27.801Z,35.04
2023-04-06T10:01:20.882Z,35.07
2023-04-06T10:03:57.034Z,35.58
2023-04-06T10:06:26.391Z,37.36
2023-04-06T10:08:55.681Z,36.43
2023-04-06T10:11:22.201Z,37.73
2023-04-06T10:13:49.785Z,36.08
2023-04-06T10:16:16.796Z,35.01
2023-04-06T10:18:47.826Z,35.70
2023-04-06T10:21:17.463Z,35.40
2023-04-06T10:23:53.445Z,35.37
2023-04-06T10:26:23.032Z,34.61
2023-04-06T10:29:03.090Z,35.10
2023-04-06T10:31:31.564Z,36.10
2023-04-06T10:34:00.109Z,34.34
2023-04-06T10:36:29.150Z,35.02
2023-04-06T10:39:00.961Z,35.11
2023-04-06T10:41:44.556Z,35.13
2023-04-06T10:44:31.308Z,33.95
2023-04-06T10:47:01.431Z,34.99
2023-04-06T10:49:28.020Z,34.69
2023-04-06T10:51:55.968Z,35.68
2023-04-06T10:54:23.783Z,35.55
2023-04-06T10:56:50.301Z,36.70
2023-04-06T10:59:23.321Z,35.59
2023-04-06T11:01:50.216Z,34.98
2023-04-06T11:04:19.048Z,34.32
2023-04-06T11:06:49.768Z,35.48
2023-04-06T11:09:29.202Z,33.90
2023-04-06T11:11:57.090Z,35.33
2023-04-06T11:14:24.130Z,35.16
2023-04-06T11:16:51.189Z,33.18
2023-04-06T11:19:18.437Z,32.55
2023-04-06T11:21:49.487Z,34.67
2023-04-06T11:24:20.188Z,34.09
2023-04-06T11:26:49.488Z,33.95
2023-04-06T11:29:17.475Z,34.33
2023-04-06T11:31:47.340Z,34.91
2023-04-06T11:34:17.415Z,34.82
2023-04-06T11:36:45.492Z,34.00
2023-04-06T11:39:19.166Z,33.98
2023-04-06T11:41:53.885Z,34.60
2023-04-06T11:44:41.053Z,33.13
2023-04-06T11:47:09.410Z,34.64
2023-04-06T11:49:38.603Z,33.54
2023-04-06T11:52:16.091Z,33.94
2023-04-06T11:54:42.588Z,33.40
2023-04-06T11:57:09.443Z,33.33
2023-04-06T11:59:36.888Z,32.93
2023-04-06T12:02:04.701Z,33.63
2023-04-06T12:04:31.492Z,33.49
2023-04-06T12:06:58.565Z,33.27
2023-04-06T12:09:25.323Z,33.93
2023-04-06T12:11:51.786Z,34.58
2023-04-06T12:14:18.333Z,33.35
2023-04-06T12:16:44.903Z,33.70
2023-04-06T12:19:11.517Z,33.39
2023-04-06T12:21:38.418Z,32.85
2023-04-06T12:24:06.334Z,34.81
2023-04-06T12:26:33.408Z,34.03
2023-04-06T12:29:07.554Z,33.14
2023-04-06T12:31:36.058Z,33.53
2023-04-06T12:34:04.119Z,32.63
2023-04-06T12:36:30.732Z,32.51
2023-04-06T12:38:57.180Z,33.19
2023-04-06T12:41:23.971Z,32.86
2023-04-06T12:43:53.368Z,33.68
2023-04-06T12:46:20.879Z,33.97
2023-04-06T12:48:47.410Z,33.37
2023-04-06T12:51:13.880Z,33.52
2023-04-06T12:53:40.467Z,32.34
2023-04-06T12:56:15.062Z,33.18
2023-04-06T12:58:44.474Z,30.44
2023-04-06T13:01:12.606Z,31.55
2023-04-06T13:03:39.599Z,31.05
2023-04-06T13:06:06.415Z,31.61
2023-04-06T13:08:32.952Z,32.43
2023-04-06T13:10:59.440Z,32.76
2023-04-06T13:13:29.912Z,32.71
2023-04-06T13:16:04.387Z,32.33
2023-04-06T13:18:32.479Z,31.44
2023-04-06T13:21:00.495Z,32.15
2023-04-06T13:23:27.695Z,32.90
2023-04-06T13:26:01.619Z,32.30
2023-04-06T13:28:28.802Z,32.63
2023-04-06T13:30:56.379Z,32.00
2023-04-06T13:33:23.206Z,32.85
2023-04-06T13:35:49.672Z,31.51
2023-04-06T13:38:17.041Z,32.46
2023-04-06T13:40:43.647Z,30.46
2023-04-06T13:43:10.177Z,31.35
2023-04-06T13:45:37.763Z,31.16
2023-04-06T13:48:04.544Z,31.52
2023-04-06T13:50:31.093Z,31.66
2023-04-06T13:52:57.567Z,30.71
2023-04-06T13:55:27.153Z,30.59
2023-04-06T13:57:53.718Z,31.83
2023-04-06T14:00:20.440Z,31.21
2023-04-06T14:02:47.073Z,31.92
2023-04-06T14:05:13.801Z,32.03
2023-04-06T14:07:41.203Z,32.08
2023-04-06T14:10:14.704Z,32.49
2023-04-06T14:12:47.556Z,33.04
2023-04-06T14:15:14.097Z,32.28
2023-04-06T14:17:40.698Z,32.42
2023-04-06T14:20:07.949Z,31.76
2023-04-06T14:22:34.402Z,33.31
2023-04-06T14:25:00.858Z,33.17
2023-04-06T14:27:27.302Z,33.53
2023-04-06T14:29:55.032Z,32.56
2023-04-06T14:32:22.612Z,33.54
2023-04-06T14:34:49.114Z,33.27
2023-04-06T14:37:15.648Z,34.07
2023-04-06T14:39:42.135Z,33.39
2023-04-06T14:42:08.591Z,33.56
2023-04-06T14:44:37.616Z,33.31
2023-04-06T14:47:06.335Z,33.26
2023-04-06T14:49:33.089Z,33.08
2023-04-06T14:52:00.475Z,33.06
2023-04-06T14:54:26.964Z,32.95
2023-04-06T14:56:53.427Z,33.03
2023-04-06T14:59:19.859Z,33.44
2023-04-06T15:01:46.613Z,32.88
2023-04-06T15:04:13.319Z,33.28
2023-04-06T15:06:39.908Z,33.28
2023-04-06T15:09:06.410Z,33.25
2023-04-06T15:11:32.881Z,32.69
2023-04-06T15:14:01.413Z,33.62
2023-04-06T15:16:28.215Z,34.55
2023-04-06T15:18:54.749Z,35.12
2023-04-06T15:21:21.613Z,35.06
2023-04-06T15:23:48.384Z,34.99
2023-04-06T15:26:15.513Z,35.35
2023-04-06T15:28:42.103Z,34.19
2023-04-06T15:33:48.567Z,34.40
2023-04-06T15:36:33.994Z,35.34
2023-04-06T15:39:01.671Z,35.28
2023-04-06T15:41:28.540Z,34.57
2023-04-06T15:43:55.777Z,34.82
2023-04-06T15:46:22.565Z,34.73
2023-04-06T15:48:49.156Z,35.47
2023-04-06T15:51:17.673Z,34.95
2023-04-06T15:53:44.951Z,35.66
2023-04-06T15:56:11.726Z,34.60
2023-04-06T15:58:38.260Z,34.41
2023-04-06T16:01:12.941Z,35.55
2023-04-06T16:03:39.729Z,35.19
2023-04-06T16:06:08.878Z,35.49
2023-04-06T16:08:36.781Z,35.45
2023-04-06T16:11:03.721Z,35.98
2023-04-06T16:13:30.295Z,35.65
2023-04-06T16:15:56.913Z,35.39
2023-04-06T16:18:23.468Z,35.49
2023-04-06T16:20:50.046Z,36.33
2023-04-06T16:23:16.607Z,36.36
2023-04-06T16:25:43.068Z,36.86
2023-04-06T16:28:09.571Z,37.14
2023-04-06T16:30:40.500Z,36.62
2023-04-06T16:33:09.903Z,36.74
2023-04-06T16:35:36.777Z,36.30
2023-04-06T16:38:03.242Z,36.13
2023-04-06T16:40:29.763Z,36.47
2023-04-06T16:42:56.206Z,36.77
2023-04-06T16:45:22.757Z,36.87
2023-04-06T16:47:50.484Z,37.55
2023-04-06T16:50:17.553Z,37.47
2023-04-06T16:52:44.281Z,37.61
2023-04-06T16:55:11.323Z,37.99
2023-04-06T16:57:37.803Z,37.71
2023-04-06T17:00:06.043Z,37.93
2023-04-06T17:02:36.136Z,37.84
2023-04-06T17:05:04.105Z,38.16
2023-04-06T17:07:35.523Z,38.48
2023-04-06T17:10:03.648Z,38.56
2023-04-06T17:12:30.175Z,38.56
2023-04-06T17:14:58.155Z,38.18
2023-04-06T17:17:24.731Z,38.93
2023-04-06T17:19:51.243Z,38.90
2023-04-06T17:22:20.891Z,39.13
2023-04-06T17:24:48.670Z,39.15
2023-04-06T17:27:15.930Z,39.00
2023-04-06T17:29:42.556Z,38.96
2023-04-06T17:32:09.152Z,40.08
2023-04-06T17:34:35.766Z,39.92
2023-04-06T17:37:02.644Z,39.13
2023-04-06T17:39:29.086Z,40.20
2023-04-06T17:41:55.623Z,39.65
2023-04-06T17:44:22.093Z,40.70
2023-04-06T17:46:48.819Z,40.77
2023-04-06T17:49:15.410Z,40.17
2023-04-06T17:51:41.977Z,41.24
2023-04-06T17:54:08.433Z,41.12
2023-04-06T17:56:34.920Z,41.73
2023-04-06T17:59:01.358Z,41.20
2023-04-06T18:01:28.091Z,41.45
2023-04-06T18:03:54.745Z,41.42
2023-04-06T18:06:25.119Z,41.52
2023-04-06T18:08:52.370Z,41.88
2023-04-06T18:11:21.436Z,41.87
2023-04-06T18:13:47.988Z,42.14
2023-04-06T18:16:16.413Z,41.97
2023-04-06T18:18:43.077Z,42.17
2023-04-06T18:21:09.580Z,42.45
2023-04-06T18:23:37.695Z,42.52
2023-04-06T18:26:05.586Z,42.16
2023-04-06T18:28:32.286Z,42.21
2023-04-06T18:30:59.728Z,42.53
2023-04-06T18:33:29.135Z,42.36
2023-04-06T18:35:56.743Z,42.78
2023-04-06T18:38:24.151Z,42.89
2023-04-06T18:40:50.676Z,43.12
2023-04-06T18:43:17.165Z,43.03
2023-04-06T18:45:43.699Z,44.00
2023-04-06T18:48:10.496Z,44.04
2023-04-06T18:50:37.129Z,44.38
2023-04-06T18:53:04.186Z,45.88
2023-04-06T18:55:33.790Z,47.20
2023-04-06T18:58:00.600Z,47.25
2023-04-06T19:00:27.141Z,47.34
2023-04-06T19:02:54.091Z,48.06
2023-04-06T19:05:22.517Z,48.43
2023-04-06T19:07:52.680Z,49.07
2023-04-06T19:10:21.426Z,50.49
2023-04-06T19:12:48.944Z,51.53
2023-04-06T19:15:15.701Z,50.97
2023-04-06T19:17:42.544Z,51.23
2023-04-06T19:20:09.597Z,51.70
2023-04-06T19:22:37.742Z,52.47
2023-04-06T19:25:07.235Z,52.51
2023-04-06T19:27:34.132Z,52.68
2023-04-06T19:30:01.710Z,52.58
2023-04-06T19:32:30.238Z,52.83
2023-04-06T19:34:56.966Z,53.01
2023-04-06T19:37:23.525Z,53.23
2023-04-06T19:39:50.497Z,53.26
2023-04-06T19:42:21.990Z,53.74
2023-04-06T19:44:48.643Z,54.42
2023-04-06T19:47:15.478Z,54.48
2023-04-06T19:49:42.066Z,54.27
2023-04-06T19:52:10.092Z,54.34
2023-04-06T19:54:39.554Z,54.71
2023-04-06T19:57:06.219Z,55.59
2023-04-06T19:59:34.412Z,55.45
2023-04-06T20:02:01.139Z,55.40
2023-04-06T20:04:27.820Z,55.08
2023-04-06T20:06:54.377Z,56.46
2023-04-06T20:09:21.774Z,55.17
2023-04-06T20:11:48.226Z,55.99
2023-04-06T20:14:15.602Z,55.64
2023-04-06T20:16:42.108Z,55.88
2023-04-06T20:19:08.708Z,55.68
2023-04-06T20:21:36.283Z,55.61
2023-04-06T20:24:04.226Z,56.20
2023-04-06T20:26:30.903Z,56.09
2023-04-06T20:28:57.403Z,56.62
2023-04-06T20:31:27.710Z,56.07
2023-04-06T20:33:54.659Z,56.10
2023-04-06T20:36:22.297Z,55.92
2023-04-06T20:38:48.893Z,55.24
2023-04-06T20:41:19.153Z,56.10
2023-04-06T20:43:45.834Z,55.44
2023-04-06T20:46:17.084Z,55.16
2023-04-06T20:48:44.019Z,55.64
2023-04-06T20:51:18.190Z,56.38
2023-04-06T20:53:44.706Z,56.12
2023-04-06T20:56:11.428Z,56.21
2023-04-06T20:58:37.898Z,54.50
2023-04-06T21:01:04.451Z,55.58
2023-04-06T21:03:31.052Z,55.40
2023-04-06T21:05:59.012Z,55.29
2023-04-06T21:08:25.663Z,55.65
2023-04-06T21:10:52.133Z,55.62
2023-04-06T21:13:18.645Z,55.07
2023-04-06T21:15:45.198Z,54.66
2023-04-06T21:18:12.364Z,54.89
2023-04-06T21:20:39.937Z,54.78
2023-04-06T21:23:06.447Z,54.98
2023-04-06T21:25:32.878Z,54.85
2023-04-06T21:27:59.338Z,54.27
2023-04-06T21:30:25.821Z,54.49
2023-04-06T21:32:52.372Z,54.96
2023-04-06T21:35:18.900Z,54.15
2023-04-06T21:37:45.479Z,54.82
2023-04-06T21:40:12.960Z,54.43
2023-04-06T21:42:39.504Z,54.48
2023-04-06T21:45:06.451Z,55.21
2023-04-06T21:47:34.929Z,54.78
2023-04-06T21:50:01.498Z,55.21
2023-04-06T21:52:27.970Z,55.02
2023-04-06T21:54:54.466Z,54.44
2023-04-06T21:57:21.111Z,54.59
2023-04-06T21:59:48.012Z,54.22
2023-04-06T22:02:14.725Z,53.58
2023-04-06T22:04:41.397Z,54.50
2023-04-06T22:07:08.047Z,54.07
2023-04-06T22:09:35.236Z,54.07
2023-04-06T22:12:02.033Z,53.59
2023-04-06T22:14:30.188Z,53.24
2023-04-06T22:16:57.590Z,53.65
2023-04-06T22:19:24.071Z,54.02
2023-04-06T22:21:50.929Z,53.70
2023-04-06T22:24:17.818Z,53.49
2023-04-06T22:26:44.509Z,53.89
2023-04-06T22:29:10.991Z,54.13
2023-04-06T22:31:37.473Z,53.93
2023-04-06T22:34:04.015Z,54.01
2023-04-06T22:36:31.810Z,53.74
2023-04-06T22:38:58.290Z,54.09
2023-04-06T22:41:24.801Z,54.24
2023-04-06T22:43:51.265Z,53.64
2023-04-06T22:46:17.796Z,53.95
2023-04-06T22:48:44.249Z,53.85
2023-04-06T22:51:10.695Z,53.57
2023-04-06T22:53:37.198Z,54.04
2023-04-06T22:56:03.726Z,53.62
2023-04-06T22:58:30.327Z,53.67
2023-04-06T23:00:56.861Z,54.01
2023-04-06T23:03:23.477Z,53.51
2023-04-06T23:05:50.019Z,53.06
2023-04-06T23:08:16.518Z,53.41
2023-04-06T23:10:43.008Z,53.97
2023-04-06T23:13:10.381Z,53.82
2023-04-06T23:15:37.046Z,53.23
2023-04-06T23:18:03.720Z,53.59
2023-04-06T23:20:30.325Z,53.49
2023-04-06T23:22:56.769Z,52.78
2023-04-06T23:25:23.323Z,53.33
2023-04-06T23:27:49.762Z,53.31
2023-04-06T23:30:16.377Z,52.86
2023-04-06T23:32:42.970Z,53.28
2023-04-06T23:35:09.701Z,53.52
2023-04-06T23:37:36.281Z,52.25
2023-04-06T23:40:03.080Z,52.91
2023-04-06T23:42:29.524Z,52.93
2023-04-06T23:44:56.155Z,53.03
2023-04-06T23:47:22.689Z,52.53
2023-04-06T23:49:49.227Z,53.21
2023-04-06T23:52:15.671Z,52.69
2023-04-06T23:54:42.122Z,53.78
2023-04-06T23:57:08.593Z,53.05
2023-04-06T23:59:35.334Z,53.59
